sensor_id;sensor_type;location;lat;lon;timestamp;temperature;humidity
16140;DHT22;8175;49.326;12.690;2023-07-02T00:01:11;16.20;99.90
16140;DHT22;8175;49.326;12.690;2023-07-02T00:03:38;16.10;99.90
16140;DHT22;8175;49.326;12.690;2023-07-02T00:06:04;16.10;99.90
16140;DHT22;8175;49.326;12.690;2023-07-02T00:08:29;16.00;99.90
16140;DHT22;8175;49.326;12.690;2023-07-02T00:10:55;16.00;99.90
16140;DHT22;8175;49.326;12.690;2023-07-02T00:13:20;16.00;99.90
16140;DHT22;8175;49.326;12.690;2023-07-02T00:15:46;16.00;99.90
16140;DHT22;8175;49.326;12.690;2023-07-02T00:18:12;16.00;99.90
16140;DHT22;8175;49.326;12.690;2023-07-02T00:20:42;16.00;99.90
16140;DHT22;8175;49.326;12.690;2023-07-02T00:23:08;16.00;99.90
16140;DHT22;8175;49.326;12.690;2023-07-02T00:25:35;16.00;99.90
16140;DHT22;8175;49.326;12.690;2023-07-02T00:28:01;15.90;99.90
16140;DHT22;8175;49.326;12.690;2023-07-02T00:30:27;15.90;99.90
16140;DHT22;8175;49.326;12.690;2023-07-02T00:32:52;15.90;99.90
16140;DHT22;8175;49.326;12.690;2023-07-02T00:35:18;15.90;99.90
16140;DHT22;8175;49.326;12.690;2023-07-02T00:37:43;15.90;99.90
16140;DHT22;8175;49.326;12.690;2023-07-02T00:40:09;15.90;99.90
16140;DHT22;8175;49.326;12.690;2023-07-02T00:42:35;15.90;99.90
16140;DHT22;8175;49.326;12.690;2023-07-02T00:45:01;15.80;99.90
16140;DHT22;8175;49.326;12.690;2023-07-02T00:47:33;15.70;99.90
16140;DHT22;8175;49.326;12.690;2023-07-02T00:49:59;15.60;99.90
16140;DHT22;8175;49.326;12.690;2023-07-02T00:52:25;15.50;99.90
16140;DHT22;8175;49.326;12.690;2023-07-02T00:54:51;15.40;99.90
16140;DHT22;8175;49.326;12.690;2023-07-02T00:57:17;15.40;99.90
16140;DHT22;8175;49.326;12.690;2023-07-02T00:59:43;15.40;99.90
16140;DHT22;8175;49.326;12.690;2023-07-02T01:02:09;15.40;99.90
16140;DHT22;8175;49.326;12.690;2023-07-02T04:02:27;15.90;99.90
16140;DHT22;8175;49.326;12.690;2023-07-02T04:04:52;15.80;99.90
16140;DHT22;8175;49.326;12.690;2023-07-02T04:07:18;15.80;99.90
16140;DHT22;8175;49.326;12.690;2023-07-02T04:09:43;15.90;99.90
16140;DHT22;8175;49.326;12.690;2023-07-02T04:17:11;15.90;99.90
16140;DHT22;8175;49.326;12.690;2023-07-02T04:19:37;15.90;99.90
16140;DHT22;8175;49.326;12.690;2023-07-02T04:22:02;15.90;99.90
16140;DHT22;8175;49.326;12.690;2023-07-02T04:24:28;16.00;99.90
16140;DHT22;8175;49.326;12.690;2023-07-02T04:26:54;15.90;99.90
16140;DHT22;8175;49.326;12.690;2023-07-02T04:29:20;16.00;99.90
16140;DHT22;8175;49.326;12.690;2023-07-02T04:31:45;16.00;99.90
16140;DHT22;8175;49.326;12.690;2023-07-02T04:34:11;15.90;99.90
16140;DHT22;8175;49.326;12.690;2023-07-02T04:36:37;16.00;99.90
16140;DHT22;8175;49.326;12.690;2023-07-02T04:39:02;16.00;99.90
16140;DHT22;8175;49.326;12.690;2023-07-02T04:41:28;16.10;99.90
16140;DHT22;8175;49.326;12.690;2023-07-02T04:43:55;16.20;99.90
16140;DHT22;8175;49.326;12.690;2023-07-02T04:46:21;16.20;99.90
16140;DHT22;8175;49.326;12.690;2023-07-02T04:48:46;16.10;99.90
16140;DHT22;8175;49.326;12.690;2023-07-02T04:51:13;16.00;99.90
16140;DHT22;8175;49.326;12.690;2023-07-02T04:53:39;16.10;99.90
16140;DHT22;8175;49.326;12.690;2023-07-02T04:56:04;16.10;99.90
16140;DHT22;8175;49.326;12.690;2023-07-02T04:58:30;16.10;99.90
16140;DHT22;8175;49.326;12.690;2023-07-02T05:00:55;16.10;99.90
16140;DHT22;8175;49.326;12.690;2023-07-02T05:03:21;16.10;99.90
16140;DHT22;8175;49.326;12.690;2023-07-02T05:05:47;16.10;99.90
16140;DHT22;8175;49.326;12.690;2023-07-02T05:08:12;16.00;99.90
16140;DHT22;8175;49.326;12.690;2023-07-02T05:10:38;16.00;99.90
16140;DHT22;8175;49.326;12.690;2023-07-02T05:13:03;15.90;99.90
16140;DHT22;8175;49.326;12.690;2023-07-02T05:15:29;15.80;99.90
16140;DHT22;8175;49.326;12.690;2023-07-02T05:17:55;15.90;99.90
16140;DHT22;8175;49.326;12.690;2023-07-02T05:20:20;16.00;99.90
16140;DHT22;8175;49.326;12.690;2023-07-02T05:22:46;16.30;99.90
16140;DHT22;8175;49.326;12.690;2023-07-02T05:25:12;16.50;99.90
16140;DHT22;8175;49.326;12.690;2023-07-02T05:27:37;16.50;99.90
16140;DHT22;8175;49.326;12.690;2023-07-02T05:30:03;16.60;99.90
16140;DHT22;8175;49.326;12.690;2023-07-02T05:32:29;16.70;99.90
16140;DHT22;8175;49.326;12.690;2023-07-02T05:34:54;16.80;99.90
16140;DHT22;8175;49.326;12.690;2023-07-02T05:37:20;17.10;99.90
16140;DHT22;8175;49.326;12.690;2023-07-02T05:39:47;17.20;99.90
16140;DHT22;8175;49.326;12.690;2023-07-02T05:42:12;17.30;99.90
16140;DHT22;8175;49.326;12.690;2023-07-02T05:44:38;17.40;99.90
16140;DHT22;8175;49.326;12.690;2023-07-02T05:47:03;17.40;99.90
16140;DHT22;8175;49.326;12.690;2023-07-02T05:49:29;17.50;99.90
16140;DHT22;8175;49.326;12.690;2023-07-02T05:51:55;17.60;99.90
16140;DHT22;8175;49.326;12.690;2023-07-02T05:54:20;17.50;99.90
16140;DHT22;8175;49.326;12.690;2023-07-02T05:56:46;17.30;99.90
16140;DHT22;8175;49.326;12.690;2023-07-02T05:59:11;17.00;99.90
16140;DHT22;8175;49.326;12.690;2023-07-02T06:01:40;16.90;99.90
16140;DHT22;8175;49.326;12.690;2023-07-02T06:04:05;16.80;99.90
16140;DHT22;8175;49.326;12.690;2023-07-02T06:06:31;17.00;99.90
16140;DHT22;8175;49.326;12.690;2023-07-02T06:08:57;17.10;99.90
16140;DHT22;8175;49.326;12.690;2023-07-02T06:11:22;17.20;99.90
16140;DHT22;8175;49.326;12.690;2023-07-02T06:13:48;17.50;99.90
16140;DHT22;8175;49.326;12.690;2023-07-02T06:16:13;17.60;99.90
16140;DHT22;8175;49.326;12.690;2023-07-02T06:18:39;17.50;99.90
16140;DHT22;8175;49.326;12.690;2023-07-02T06:21:05;17.50;99.90
16140;DHT22;8175;49.326;12.690;2023-07-02T06:23:40;17.40;99.90
16140;DHT22;8175;49.326;12.690;2023-07-02T06:26:05;17.40;99.90
16140;DHT22;8175;49.326;12.690;2023-07-02T06:28:31;17.60;99.90
16140;DHT22;8175;49.326;12.690;2023-07-02T06:30:57;17.50;99.90
16140;DHT22;8175;49.326;12.690;2023-07-02T06:33:22;17.30;99.90
16140;DHT22;8175;49.326;12.690;2023-07-02T06:35:49;17.10;99.90
16140;DHT22;8175;49.326;12.690;2023-07-02T06:38:14;17.00;99.90
16140;DHT22;8175;49.326;12.690;2023-07-02T06:40:40;17.00;99.90
16140;DHT22;8175;49.326;12.690;2023-07-02T06:43:06;17.00;99.90
16140;DHT22;8175;49.326;12.690;2023-07-02T06:45:31;16.90;99.90
16140;DHT22;8175;49.326;12.690;2023-07-02T06:47:57;16.80;99.90
16140;DHT22;8175;49.326;12.690;2023-07-02T06:50:22;16.90;99.90
16140;DHT22;8175;49.326;12.690;2023-07-02T06:52:48;16.90;99.90
16140;DHT22;8175;49.326;12.690;2023-07-02T06:55:13;16.90;99.90
16140;DHT22;8175;49.326;12.690;2023-07-02T06:57:43;16.80;99.90
16140;DHT22;8175;49.326;12.690;2023-07-02T07:00:11;16.70;99.90
16140;DHT22;8175;49.326;12.690;2023-07-02T07:02:37;16.70;99.90
16140;DHT22;8175;49.326;12.690;2023-07-02T07:05:02;16.70;99.90
16140;DHT22;8175;49.326;12.690;2023-07-02T07:07:28;16.80;99.90
16140;DHT22;8175;49.326;12.690;2023-07-02T07:09:54;16.80;99.90
16140;DHT22;8175;49.326;12.690;2023-07-02T07:12:19;16.90;99.90
16140;DHT22;8175;49.326;12.690;2023-07-02T07:14:45;16.80;99.90
16140;DHT22;8175;49.326;12.690;2023-07-02T07:17:11;16.80;99.90
16140;DHT22;8175;49.326;12.690;2023-07-02T07:19:37;16.80;99.90
16140;DHT22;8175;49.326;12.690;2023-07-02T07:22:03;17.00;99.90
16140;DHT22;8175;49.326;12.690;2023-07-02T07:24:28;17.00;99.90
16140;DHT22;8175;49.326;12.690;2023-07-02T07:26:54;17.10;99.90
16140;DHT22;8175;49.326;12.690;2023-07-02T07:29:20;17.10;99.90
16140;DHT22;8175;49.326;12.690;2023-07-02T07:31:45;17.20;99.90
16140;DHT22;8175;49.326;12.690;2023-07-02T07:34:11;17.30;99.90
16140;DHT22;8175;49.326;12.690;2023-07-02T07:36:37;17.30;99.90
16140;DHT22;8175;49.326;12.690;2023-07-02T07:39:03;17.20;99.90
16140;DHT22;8175;49.326;12.690;2023-07-02T07:41:28;16.90;99.90
16140;DHT22;8175;49.326;12.690;2023-07-02T07:43:54;16.60;99.90
16140;DHT22;8175;49.326;12.690;2023-07-02T07:46:20;16.50;99.90
16140;DHT22;8175;49.326;12.690;2023-07-02T07:48:45;16.40;99.90
16140;DHT22;8175;49.326;12.690;2023-07-02T07:51:11;16.50;99.90
16140;DHT22;8175;49.326;12.690;2023-07-02T07:53:39;16.60;99.90
16140;DHT22;8175;49.326;12.690;2023-07-02T07:56:06;16.70;99.90
16140;DHT22;8175;49.326;12.690;2023-07-02T07:58:31;16.90;99.90
16140;DHT22;8175;49.326;12.690;2023-07-02T08:00:59;17.10;99.90
16140;DHT22;8175;49.326;12.690;2023-07-02T08:03:25;17.40;99.90
16140;DHT22;8175;49.326;12.690;2023-07-02T08:05:51;17.80;99.90
16140;DHT22;8175;49.326;12.690;2023-07-02T08:08:16;18.20;99.90
16140;DHT22;8175;49.326;12.690;2023-07-02T08:10:42;18.40;99.90
16140;DHT22;8175;49.326;12.690;2023-07-02T08:13:08;18.10;99.90
16140;DHT22;8175;49.326;12.690;2023-07-02T08:15:34;17.80;99.90
16140;DHT22;8175;49.326;12.690;2023-07-02T08:17:59;17.60;99.90
16140;DHT22;8175;49.326;12.690;2023-07-02T08:20:25;17.70;99.90
16140;DHT22;8175;49.326;12.690;2023-07-02T08:22:51;17.90;99.90
16140;DHT22;8175;49.326;12.690;2023-07-02T08:25:18;18.20;99.90
16140;DHT22;8175;49.326;12.690;2023-07-02T08:27:44;18.50;99.90
16140;DHT22;8175;49.326;12.690;2023-07-02T08:30:09;18.50;99.90
16140;DHT22;8175;49.326;12.690;2023-07-02T08:32:35;18.50;99.90
16140;DHT22;8175;49.326;12.690;2023-07-02T08:35:01;18.70;99.90
16140;DHT22;8175;49.326;12.690;2023-07-02T08:37:27;18.40;99.90
16140;DHT22;8175;49.326;12.690;2023-07-02T08:39:52;18.30;99.90
16140;DHT22;8175;49.326;12.690;2023-07-02T08:42:18;18.40;99.90
16140;DHT22;8175;49.326;12.690;2023-07-02T08:44:47;18.40;99.90
16140;DHT22;8175;49.326;12.690;2023-07-02T08:47:14;18.70;99.90
16140;DHT22;8175;49.326;12.690;2023-07-02T08:49:41;19.00;99.90
16140;DHT22;8175;49.326;12.690;2023-07-02T08:52:07;19.10;99.90
16140;DHT22;8175;49.326;12.690;2023-07-02T08:54:33;19.40;99.90
16140;DHT22;8175;49.326;12.690;2023-07-02T08:56:59;19.60;99.90
16140;DHT22;8175;49.326;12.690;2023-07-02T08:59:26;19.40;99.90
16140;DHT22;8175;49.326;12.690;2023-07-02T09:01:52;19.20;99.90
16140;DHT22;8175;49.326;12.690;2023-07-02T09:04:20;19.00;99.90
16140;DHT22;8175;49.326;12.690;2023-07-02T09:06:50;19.00;99.90
16140;DHT22;8175;49.326;12.690;2023-07-02T09:09:16;18.90;99.90
16140;DHT22;8175;49.326;12.690;2023-07-02T09:11:50;18.50;99.90
16140;DHT22;8175;49.326;12.690;2023-07-02T09:14:26;18.30;99.90
16140;DHT22;8175;49.326;12.690;2023-07-02T09:17:06;18.60;99.90
16140;DHT22;8175;49.326;12.690;2023-07-02T09:19:34;19.30;99.90
16140;DHT22;8175;49.326;12.690;2023-07-02T09:22:00;20.40;99.90
16140;DHT22;8175;49.326;12.690;2023-07-02T09:24:28;22.20;99.90
16140;DHT22;8175;49.326;12.690;2023-07-02T09:27:01;23.50;99.90
16140;DHT22;8175;49.326;12.690;2023-07-02T09:29:32;24.60;99.90
16140;DHT22;8175;49.326;12.690;2023-07-02T09:31:59;24.10;99.90
16140;DHT22;8175;49.326;12.690;2023-07-02T09:34:32;23.60;99.90
16140;DHT22;8175;49.326;12.690;2023-07-02T09:36:59;22.90;99.90
16140;DHT22;8175;49.326;12.690;2023-07-02T09:39:27;23.60;99.90
16140;DHT22;8175;49.326;12.690;2023-07-02T09:41:55;23.70;99.90
16140;DHT22;8175;49.326;12.690;2023-07-02T09:44:25;24.10;99.90
16140;DHT22;8175;49.326;12.690;2023-07-02T09:47:05;24.20;99.90
16140;DHT22;8175;49.326;12.690;2023-07-02T09:49:35;23.60;99.90
16140;DHT22;8175;49.326;12.690;2023-07-02T09:52:06;23.00;99.90
16140;DHT22;8175;49.326;12.690;2023-07-02T09:54:32;22.30;99.90
16140;DHT22;8175;49.326;12.690;2023-07-02T09:57:01;21.70;99.90
16140;DHT22;8175;49.326;12.690;2023-07-02T09:59:28;21.20;99.90
16140;DHT22;8175;49.326;12.690;2023-07-02T10:01:54;21.00;99.90
16140;DHT22;8175;49.326;12.690;2023-07-02T10:04:21;21.00;99.90
16140;DHT22;8175;49.326;12.690;2023-07-02T10:09:16;21.90;99.90
16140;DHT22;8175;49.326;12.690;2023-07-02T10:11:43;21.50;99.90
16140;DHT22;8175;49.326;12.690;2023-07-02T10:14:08;20.90;99.90
16140;DHT22;8175;49.326;12.690;2023-07-02T10:16:34;20.60;99.90
16140;DHT22;8175;49.326;12.690;2023-07-02T10:19:12;20.40;99.90
16140;DHT22;8175;49.326;12.690;2023-07-02T10:21:38;20.30;99.90
16140;DHT22;8175;49.326;12.690;2023-07-02T10:24:14;20.20;99.90
16140;DHT22;8175;49.326;12.690;2023-07-02T10:29:23;21.70;99.90
16140;DHT22;8175;49.326;12.690;2023-07-02T10:31:54;22.80;99.90
16140;DHT22;8175;49.326;12.690;2023-07-02T10:34:34;22.30;99.90
16140;DHT22;8175;49.326;12.690;2023-07-02T10:37:01;21.70;99.90
16140;DHT22;8175;49.326;12.690;2023-07-02T10:39:29;21.20;99.90
16140;DHT22;8175;49.326;12.690;2023-07-02T10:42:04;20.80;99.90
16140;DHT22;8175;49.326;12.690;2023-07-02T10:44:30;20.70;99.90
16140;DHT22;8175;49.326;12.690;2023-07-02T10:46:57;20.80;99.90
16140;DHT22;8175;49.326;12.690;2023-07-02T10:49:30;20.70;99.90
16140;DHT22;8175;49.326;12.690;2023-07-02T10:51:57;20.60;99.90
16140;DHT22;8175;49.326;12.690;2023-07-02T10:54:23;20.40;99.90
16140;DHT22;8175;49.326;12.690;2023-07-02T10:56:49;20.20;99.90
16140;DHT22;8175;49.326;12.690;2023-07-02T10:59:25;20.20;99.90
16140;DHT22;8175;49.326;12.690;2023-07-02T11:01:50;20.50;99.90
16140;DHT22;8175;49.326;12.690;2023-07-02T11:04:16;21.80;99.90
16140;DHT22;8175;49.326;12.690;2023-07-02T11:06:42;22.50;99.40
16140;DHT22;8175;49.326;12.690;2023-07-02T11:09:17;22.20;99.90
16140;DHT22;8175;49.326;12.690;2023-07-02T11:11:52;22.10;98.90
16140;DHT22;8175;49.326;12.690;2023-07-02T11:14:35;21.40;98.50
16140;DHT22;8175;49.326;12.690;2023-07-02T11:17:06;21.70;99.70
16140;DHT22;8175;49.326;12.690;2023-07-02T11:19:35;23.30;99.80
16140;DHT22;8175;49.326;12.690;2023-07-02T11:22:01;24.70;96.60
16140;DHT22;8175;49.326;12.690;2023-07-02T11:24:36;23.50;93.60
16140;DHT22;8175;49.326;12.690;2023-07-02T11:27:05;22.40;94.00
16140;DHT22;8175;49.326;12.690;2023-07-02T11:29:34;22.30;96.50
16140;DHT22;8175;49.326;12.690;2023-07-02T11:32:09;22.30;94.60
16140;DHT22;8175;49.326;12.690;2023-07-02T11:34:35;22.20;96.70
16140;DHT22;8175;49.326;12.690;2023-07-02T11:37:01;23.50;95.80
16140;DHT22;8175;49.326;12.690;2023-07-02T11:39:27;25.00;90.40
16140;DHT22;8175;49.326;12.690;2023-07-02T11:41:53;26.10;90.50
16140;DHT22;8175;49.326;12.690;2023-07-02T11:44:19;26.70;85.30
16140;DHT22;8175;49.326;12.690;2023-07-02T11:46:45;25.30;79.80
16140;DHT22;8175;49.326;12.690;2023-07-02T11:49:12;23.90;82.90
16140;DHT22;8175;49.326;12.690;2023-07-02T11:51:42;23.90;85.30
16140;DHT22;8175;49.326;12.690;2023-07-02T11:54:13;24.60;85.00
16140;DHT22;8175;49.326;12.690;2023-07-02T11:56:39;25.20;79.60
16140;DHT22;8175;49.326;12.690;2023-07-02T11:59:07;24.10;78.80
16140;DHT22;8175;49.326;12.690;2023-07-02T12:01:32;23.70;83.30
16140;DHT22;8175;49.326;12.690;2023-07-02T12:03:58;23.30;82.40
16140;DHT22;8175;49.326;12.690;2023-07-02T12:06:24;23.50;84.00
16140;DHT22;8175;49.326;12.690;2023-07-02T12:08:50;24.80;84.50
16140;DHT22;8175;49.326;12.690;2023-07-02T12:11:15;25.60;87.20
16140;DHT22;8175;49.326;12.690;2023-07-02T12:13:41;25.50;75.90
16140;DHT22;8175;49.326;12.690;2023-07-02T12:16:07;24.30;76.80
16140;DHT22;8175;49.326;12.690;2023-07-02T12:18:32;23.50;78.90
16140;DHT22;8175;49.326;12.690;2023-07-02T12:20:58;23.00;81.00
16140;DHT22;8175;49.326;12.690;2023-07-02T12:23:24;22.70;81.00
16140;DHT22;8175;49.326;12.690;2023-07-02T12:25:49;22.60;83.00
16140;DHT22;8175;49.326;12.690;2023-07-02T12:28:15;22.10;84.90
16140;DHT22;8175;49.326;12.690;2023-07-02T12:30:40;21.90;88.10
16140;DHT22;8175;49.326;12.690;2023-07-02T12:33:06;22.30;88.60
16140;DHT22;8175;49.326;12.690;2023-07-02T12:35:32;22.40;87.40
16140;DHT22;8175;49.326;12.690;2023-07-02T12:37:58;23.50;85.60
16140;DHT22;8175;49.326;12.690;2023-07-02T12:40:23;24.90;80.80
16140;DHT22;8175;49.326;12.690;2023-07-02T12:42:49;25.30;78.00
16140;DHT22;8175;49.326;12.690;2023-07-02T12:45:15;25.80;78.70
16140;DHT22;8175;49.326;12.690;2023-07-02T12:47:42;26.60;73.70
16140;DHT22;8175;49.326;12.690;2023-07-02T12:50:09;25.70;73.50
16140;DHT22;8175;49.326;12.690;2023-07-02T12:52:35;25.30;78.10
16140;DHT22;8175;49.326;12.690;2023-07-02T12:55:01;25.80;75.30
16140;DHT22;8175;49.326;12.690;2023-07-02T12:57:27;26.30;79.60
16140;DHT22;8175;49.326;12.690;2023-07-02T12:59:54;27.20;73.90
16140;DHT22;8175;49.326;12.690;2023-07-02T13:02:21;27.10;72.80
16140;DHT22;8175;49.326;12.690;2023-07-02T13:04:46;25.80;71.40
16140;DHT22;8175;49.326;12.690;2023-07-02T13:07:12;25.10;72.50
16140;DHT22;8175;49.326;12.690;2023-07-02T13:09:38;25.70;72.50
16140;DHT22;8175;49.326;12.690;2023-07-02T13:12:04;26.20;71.60
16140;DHT22;8175;49.326;12.690;2023-07-02T13:14:30;26.00;69.50
16140;DHT22;8175;49.326;12.690;2023-07-02T13:16:55;25.40;72.70
16140;DHT22;8175;49.326;12.690;2023-07-02T13:19:21;25.80;71.50
16140;DHT22;8175;49.326;12.690;2023-07-02T13:21:47;24.80;76.40
16140;DHT22;8175;49.326;12.690;2023-07-02T13:24:12;24.00;74.90
16140;DHT22;8175;49.326;12.690;2023-07-02T13:26:38;24.10;75.60
16140;DHT22;8175;49.326;12.690;2023-07-02T13:29:03;24.00;73.90
16140;DHT22;8175;49.326;12.690;2023-07-02T13:31:29;23.40;73.80
16140;DHT22;8175;49.326;12.690;2023-07-02T13:33:55;23.50;75.80
16140;DHT22;8175;49.326;12.690;2023-07-02T13:36:20;23.30;75.00
16140;DHT22;8175;49.326;12.690;2023-07-02T13:38:46;22.80;77.00
16140;DHT22;8175;49.326;12.690;2023-07-02T13:41:12;22.60;78.10
16140;DHT22;8175;49.326;12.690;2023-07-02T13:43:37;22.20;78.80
16140;DHT22;8175;49.326;12.690;2023-07-02T13:46:03;22.20;81.00
16140;DHT22;8175;49.326;12.690;2023-07-02T13:48:29;22.50;82.50
16140;DHT22;8175;49.326;12.690;2023-07-02T13:50:55;22.60;81.50
16140;DHT22;8175;49.326;12.690;2023-07-02T13:53:20;22.60;77.60
16140;DHT22;8175;49.326;12.690;2023-07-02T13:55:46;22.60;79.10
16140;DHT22;8175;49.326;12.690;2023-07-02T13:58:12;23.00;78.10
16140;DHT22;8175;49.326;12.690;2023-07-02T14:00:37;23.40;78.60
16140;DHT22;8175;49.326;12.690;2023-07-02T14:03:04;23.30;78.90
16140;DHT22;8175;49.326;12.690;2023-07-02T14:05:30;24.20;76.70
16140;DHT22;8175;49.326;12.690;2023-07-02T14:07:55;24.70;73.00
16140;DHT22;8175;49.326;12.690;2023-07-02T14:10:21;24.70;76.20
16140;DHT22;8175;49.326;12.690;2023-07-02T14:12:47;25.30;80.20
16140;DHT22;8175;49.326;12.690;2023-07-02T14:15:13;25.60;72.40
16140;DHT22;8175;49.326;12.690;2023-07-02T14:17:38;24.90;73.20
16140;DHT22;8175;49.326;12.690;2023-07-02T14:20:05;24.10;73.00
16140;DHT22;8175;49.326;12.690;2023-07-02T14:22:31;25.10;71.90
16140;DHT22;8175;49.326;12.690;2023-07-02T14:24:57;25.90;72.10
16140;DHT22;8175;49.326;12.690;2023-07-02T14:27:22;26.50;69.90
16140;DHT22;8175;49.326;12.690;2023-07-02T14:29:48;26.00;65.80
16140;DHT22;8175;49.326;12.690;2023-07-02T14:32:14;25.10;67.50
16140;DHT22;8175;49.326;12.690;2023-07-02T14:34:40;24.40;69.00
16140;DHT22;8175;49.326;12.690;2023-07-02T14:37:06;24.70;71.70
16140;DHT22;8175;49.326;12.690;2023-07-02T14:39:32;25.40;69.70
16140;DHT22;8175;49.326;12.690;2023-07-02T14:41:58;26.30;69.00
16140;DHT22;8175;49.326;12.690;2023-07-02T14:44:24;26.70;66.40
16140;DHT22;8175;49.326;12.690;2023-07-02T14:46:50;25.60;66.60
16140;DHT22;8175;49.326;12.690;2023-07-02T14:49:15;25.50;66.80
16140;DHT22;8175;49.326;12.690;2023-07-02T14:51:41;24.80;69.40
16140;DHT22;8175;49.326;12.690;2023-07-02T14:54:07;24.40;69.50
16140;DHT22;8175;49.326;12.690;2023-07-02T14:56:34;23.80;68.70
16140;DHT22;8175;49.326;12.690;2023-07-02T14:59:03;23.60;70.90
16140;DHT22;8175;49.326;12.690;2023-07-02T15:01:30;24.70;70.30
16140;DHT22;8175;49.326;12.690;2023-07-02T15:03:56;25.80;71.10
16140;DHT22;8175;49.326;12.690;2023-07-02T15:06:22;26.00;65.80
16140;DHT22;8175;49.326;12.690;2023-07-02T15:08:47;25.00;64.80
16140;DHT22;8175;49.326;12.690;2023-07-02T15:11:14;24.30;70.60
16140;DHT22;8175;49.326;12.690;2023-07-02T15:13:41;24.70;66.10
16140;DHT22;8175;49.326;12.690;2023-07-02T15:16:08;25.00;66.80
16140;DHT22;8175;49.326;12.690;2023-07-02T15:18:34;26.00;67.30
16140;DHT22;8175;49.326;12.690;2023-07-02T15:21:00;26.00;63.20
16140;DHT22;8175;49.326;12.690;2023-07-02T15:23:27;26.40;63.70
16140;DHT22;8175;49.326;12.690;2023-07-02T15:26:01;25.80;63.60
16140;DHT22;8175;49.326;12.690;2023-07-02T15:28:28;25.80;64.20
16140;DHT22;8175;49.326;12.690;2023-07-02T15:30:56;25.20;66.80
16140;DHT22;8175;49.326;12.690;2023-07-02T15:33:22;25.20;67.20
16140;DHT22;8175;49.326;12.690;2023-07-02T15:35:49;25.80;67.00
16140;DHT22;8175;49.326;12.690;2023-07-02T15:38:15;25.90;64.40
16140;DHT22;8175;49.326;12.690;2023-07-02T15:40:41;25.70;63.20
16140;DHT22;8175;49.326;12.690;2023-07-02T15:43:07;25.30;63.50
16140;DHT22;8175;49.326;12.690;2023-07-02T15:45:33;25.60;65.30
16140;DHT22;8175;49.326;12.690;2023-07-02T15:47:58;25.70;62.60
16140;DHT22;8175;49.326;12.690;2023-07-02T15:50:24;25.60;62.30
16140;DHT22;8175;49.326;12.690;2023-07-02T15:52:50;25.20;63.50
16140;DHT22;8175;49.326;12.690;2023-07-02T15:55:19;25.00;62.80
16140;DHT22;8175;49.326;12.690;2023-07-02T15:57:45;25.30;63.60
16140;DHT22;8175;49.326;12.690;2023-07-02T16:00:11;24.90;65.70
16140;DHT22;8175;49.326;12.690;2023-07-02T16:02:39;25.10;66.70
16140;DHT22;8175;49.326;12.690;2023-07-02T16:05:05;25.10;63.50
16140;DHT22;8175;49.326;12.690;2023-07-02T16:07:31;25.00;64.70
16140;DHT22;8175;49.326;12.690;2023-07-02T16:09:58;24.90;64.50
16140;DHT22;8175;49.326;12.690;2023-07-02T16:12:24;25.10;64.50
16140;DHT22;8175;49.326;12.690;2023-07-02T16:14:50;25.60;63.30
16140;DHT22;8175;49.326;12.690;2023-07-02T16:17:16;25.80;63.20
16140;DHT22;8175;49.326;12.690;2023-07-02T16:19:42;25.60;62.50
16140;DHT22;8175;49.326;12.690;2023-07-02T16:22:08;25.10;62.10
16140;DHT22;8175;49.326;12.690;2023-07-02T16:24:34;24.30;64.60
16140;DHT22;8175;49.326;12.690;2023-07-02T16:27:00;23.90;65.30
16140;DHT22;8175;49.326;12.690;2023-07-02T16:29:28;23.80;67.00
16140;DHT22;8175;49.326;12.690;2023-07-02T16:31:59;24.20;65.80
16140;DHT22;8175;49.326;12.690;2023-07-02T16:34:26;24.20;64.80
16140;DHT22;8175;49.326;12.690;2023-07-02T16:36:52;24.20;68.40
16140;DHT22;8175;49.326;12.690;2023-07-02T16:39:19;24.20;65.30
16140;DHT22;8175;49.326;12.690;2023-07-02T16:41:45;24.50;65.90
16140;DHT22;8175;49.326;12.690;2023-07-02T16:44:18;24.20;64.60
16140;DHT22;8175;49.326;12.690;2023-07-02T16:46:46;23.50;67.00
16140;DHT22;8175;49.326;12.690;2023-07-02T16:49:12;23.50;68.00
16140;DHT22;8175;49.326;12.690;2023-07-02T16:51:39;23.90;65.60
16140;DHT22;8175;49.326;12.690;2023-07-02T16:54:08;24.00;63.40
16140;DHT22;8175;49.326;12.690;2023-07-02T16:56:35;24.20;66.40
16140;DHT22;8175;49.326;12.690;2023-07-02T16:59:01;24.20;66.40
16140;DHT22;8175;49.326;12.690;2023-07-02T17:01:28;24.10;65.90
16140;DHT22;8175;49.326;12.690;2023-07-02T17:03:53;23.90;67.00
16140;DHT22;8175;49.326;12.690;2023-07-02T17:06:19;23.60;66.80
16140;DHT22;8175;49.326;12.690;2023-07-02T17:08:44;23.20;66.30
16140;DHT22;8175;49.326;12.690;2023-07-02T17:11:11;23.30;67.80
16140;DHT22;8175;49.326;12.690;2023-07-02T17:13:37;23.50;67.90
16140;DHT22;8175;49.326;12.690;2023-07-02T17:16:04;23.30;66.10
16140;DHT22;8175;49.326;12.690;2023-07-02T17:18:34;23.40;67.60
16140;DHT22;8175;49.326;12.690;2023-07-02T17:21:00;23.10;66.20
16140;DHT22;8175;49.326;12.690;2023-07-02T17:23:25;23.10;66.20
16140;DHT22;8175;49.326;12.690;2023-07-02T17:25:51;23.20;68.80
16140;DHT22;8175;49.326;12.690;2023-07-02T17:28:18;23.30;66.90
16140;DHT22;8175;49.326;12.690;2023-07-02T17:30:44;23.10;66.30
16140;DHT22;8175;49.326;12.690;2023-07-02T17:33:10;22.70;67.30
16140;DHT22;8175;49.326;12.690;2023-07-02T17:35:42;22.60;69.20
16140;DHT22;8175;49.326;12.690;2023-07-02T17:38:08;22.60;67.60
16140;DHT22;8175;49.326;12.690;2023-07-02T17:40:40;22.60;69.30
16140;DHT22;8175;49.326;12.690;2023-07-02T17:43:06;22.50;69.20
16140;DHT22;8175;49.326;12.690;2023-07-02T17:45:31;22.50;68.30
16140;DHT22;8175;49.326;12.690;2023-07-02T17:47:57;22.50;69.70
16140;DHT22;8175;49.326;12.690;2023-07-02T17:50:23;22.40;70.50
16140;DHT22;8175;49.326;12.690;2023-07-02T17:52:49;22.30;68.90
16140;DHT22;8175;49.326;12.690;2023-07-02T17:55:15;22.10;68.60
16140;DHT22;8175;49.326;12.690;2023-07-02T17:57:40;21.80;68.90
16140;DHT22;8175;49.326;12.690;2023-07-02T18:00:07;21.60;71.20
16140;DHT22;8175;49.326;12.690;2023-07-02T18:02:33;21.50;72.10
16140;DHT22;8175;49.326;12.690;2023-07-02T18:04:59;21.50;72.70
16140;DHT22;8175;49.326;12.690;2023-07-02T18:07:25;21.30;72.60
16140;DHT22;8175;49.326;12.690;2023-07-02T18:09:52;21.10;73.20
16140;DHT22;8175;49.326;12.690;2023-07-02T18:12:21;20.90;75.20
16140;DHT22;8175;49.326;12.690;2023-07-02T18:14:51;20.80;76.40
16140;DHT22;8175;49.326;12.690;2023-07-02T18:17:16;20.60;74.70
16140;DHT22;8175;49.326;12.690;2023-07-02T18:19:43;20.50;74.90
16140;DHT22;8175;49.326;12.690;2023-07-02T18:22:09;20.40;76.70
16140;DHT22;8175;49.326;12.690;2023-07-02T18:24:39;20.20;76.60
16140;DHT22;8175;49.326;12.690;2023-07-02T18:27:06;20.10;76.80
16140;DHT22;8175;49.326;12.690;2023-07-02T18:29:34;20.10;77.00
16140;DHT22;8175;49.326;12.690;2023-07-02T18:32:00;19.90;79.20
16140;DHT22;8175;49.326;12.690;2023-07-02T18:34:29;19.70;78.90